Time;durP1;ratioP1;P1;durP2;ratioP2;P2;SDS_P1;SDS_P2;PMS_P1;PMS_P2;Temp;Humidity;BMP_temperature;BMP_pressure;BME280_temperature;BME280_humidity;BME280_pressure;Samples;Min_cycle;Max_cycle;Signal;HPM_P1;HPM_P2
2023/11/05 00:00:55;;;;;;;4.20;0.60;;;9.60;99.90;;;;;;5101203;28;20209;-83
2023/11/05 00:03:22;;;;;;;1.70;0.65;;;9.70;99.90;;;;;;5093121;28;20210;-83
2023/11/05 00:05:49;;;;;;;0.50;0.40;;;9.70;99.90;;;;;;5101766;28;20299;-83
2023/11/05 00:08:15;;;;;;;0.50;0.40;;;9.80;99.90;;;;;;5100969;28;20592;-84
2023/11/05 00:10:42;;;;;;;0.50;0.40;;;9.80;99.90;;;;;;5101923;28;20205;-83
2023/11/05 00:13:09;;;;;;;3.42;1.52;;;9.80;99.90;;;;;;5101858;28;20262;-82
2023/11/05 00:15:39;;;;;;;0.50;0.40;;;9.90;99.90;;;;;;5101557;28;20217;-83
2023/11/05 00:18:06;;;;;;;0.50;0.40;;;9.90;99.90;;;;;;5101610;28;20194;-83
2023/11/05 00:20:33;;;;;;;0.60;0.60;;;10.00;99.90;;;;;;5101906;28;20205;-83
2023/11/05 00:22:59;;;;;;;0.75;0.75;;;10.00;99.90;;;;;;5100499;28;20250;-82
2023/11/05 00:25:26;;;;;;;0.50;0.40;;;10.00;99.90;;;;;;5100772;28;20218;-84
2023/11/05 00:27:53;;;;;;;0.50;0.40;;;10.00;99.90;;;;;;5101773;28;20284;-83
2023/11/05 00:30:19;;;;;;;1.80;0.60;;;10.10;99.90;;;;;;5101602;28;20194;-84
2023/11/05 00:32:47;;;;;;;1.95;0.50;;;10.10;99.90;;;;;;5101699;28;20190;-82
2023/11/05 00:35:14;;;;;;;0.50;0.40;;;10.10;99.90;;;;;;5101194;28;20734;-84
2023/11/05 00:37:41;;;;;;;0.80;0.77;;;10.20;99.90;;;;;;5101585;28;20279;-83
2023/11/05 00:40:09;;;;;;;0.50;0.40;;;10.20;99.90;;;;;;5104863;28;20200;-83
2023/11/05 00:42:36;;;;;;;0.50;0.40;;;10.30;99.90;;;;;;5103949;28;20209;-83
2023/11/05 00:45:03;;;;;;;0.50;0.40;;;10.30;99.90;;;;;;5104488;28;20240;-83
2023/11/05 00:47:30;;;;;;;0.50;0.40;;;10.40;99.90;;;;;;5105469;28;20200;-82
2023/11/05 00:49:58;;;;;;;0.50;0.40;;;10.40;99.90;;;;;;5102842;28;20261;-83
2023/11/05 00:52:25;;;;;;;0.50;0.40;;;10.40;99.90;;;;;;5102536;28;20262;-83
2023/11/05 00:54:51;;;;;;;0.50;0.40;;;10.40;99.90;;;;;;5101757;28;20978;-84
2023/11/05 00:57:18;;;;;;;0.85;0.80;;;10.40;99.90;;;;;;5101605;28;20201;-83
2023/11/05 00:59:45;;;;;;;6.10;0.70;;;10.50;99.90;;;;;;5101369;28;20220;-83
2023/11/05 01:02:12;;;;;;;0.50;0.40;;;10.50;99.90;;;;;;5101261;28;20476;-83
2023/11/05 01:04:39;;;;;;;5.90;0.60;;;10.50;99.90;;;;;;5101354;28;20213;-83
2023/11/05 01:07:07;;;;;;;0.50;0.40;;;10.50;99.90;;;;;;5102480;28;20436;-83
2023/11/05 01:09:33;;;;;;;0.60;0.52;;;10.50;99.90;;;;;;5102747;28;20194;-82
2023/11/05 01:12:00;;;;;;;1.13;1.05;;;10.50;99.90;;;;;;5103183;28;20223;-83
2023/11/05 01:14:27;;;;;;;0.60;0.60;;;10.50;99.90;;;;;;5102350;28;20220;-82
2023/11/05 01:16:54;;;;;;;0.50;0.40;;;10.50;99.90;;;;;;5103310;28;20190;-83
2023/11/05 01:19:20;;;;;;;0.50;0.40;;;10.50;99.90;;;;;;5103523;28;20440;-84
2023/11/05 01:21:48;;;;;;;0.50;0.40;;;10.50;99.90;;;;;;5103806;28;20201;-83
2023/11/05 01:24:16;;;;;;;0.85;0.82;;;10.40;99.90;;;;;;5105475;28;20499;-83
2023/11/05 01:26:43;;;;;;;2.65;0.80;;;10.30;99.90;;;;;;5106657;28;20225;-83
2023/11/05 01:29:10;;;;;;;0.50;0.40;;;10.20;99.90;;;;;;5105988;28;20200;-84
2023/11/05 01:31:37;;;;;;;0.50;0.40;;;10.10;99.90;;;;;;5106834;28;20189;-83
2023/11/05 01:34:04;;;;;;;0.50;0.40;;;10.00;99.90;;;;;;5106443;28;20470;-84
2023/11/05 01:36:31;;;;;;;9.68;0.82;;;9.90;99.90;;;;;;5098435;28;20260;-83
2023/11/05 01:38:57;;;;;;;1.85;0.50;;;9.80;99.90;;;;;;5106328;28;20284;-84
2023/11/05 01:41:25;;;;;;;0.50;0.40;;;9.70;99.90;;;;;;5106253;28;20201;-83
2023/11/05 01:43:52;;;;;;;0.50;0.40;;;9.60;99.90;;;;;;5106527;28;20706;-84
2023/11/05 01:46:19;;;;;;;0.50;0.40;;;9.60;99.90;;;;;;5105464;28;20204;-84
2023/11/05 01:48:46;;;;;;;1.70;0.70;;;9.50;99.90;;;;;;5104916;28;20284;-84
2023/11/05 01:51:14;;;;;;;2.88;0.75;;;9.50;99.90;;;;;;5104010;28;20194;-85
2023/11/05 01:53:42;;;;;;;3.15;1.70;;;9.40;99.90;;;;;;5104210;28;20198;-84
2023/11/05 01:56:09;;;;;;;0.50;0.50;;;9.40;99.90;;;;;;5105697;28;20273;-83
2023/11/05 01:58:38;;;;;;;0.50;0.40;;;9.40;99.90;;;;;;5105917;28;20262;-84
2023/11/05 02:01:06;;;;;;;0.50;0.40;;;9.30;99.90;;;;;;5106535;28;20197;-84
2023/11/05 02:03:33;;;;;;;1.95;1.85;;;9.30;99.90;;;;;;5097779;28;20220;-84
2023/11/05 02:06:00;;;;;;;0.50;0.40;;;9.30;99.90;;;;;;5107196;28;20205;-86
2023/11/05 02:08:27;;;;;;;0.90;0.60;;;9.30;99.90;;;;;;5105991;28;20198;-84
2023/11/05 02:10:53;;;;;;;0.50;0.40;;;9.30;99.90;;;;;;5108143;28;20220;-86
2023/11/05 02:13:22;;;;;;;0.80;0.80;;;9.20;99.90;;;;;;5109947;28;20205;-84
2023/11/05 02:15:52;;;;;;;0.50;0.40;;;9.20;99.90;;;;;;5111707;28;20280;-85
2023/11/05 02:18:18;;;;;;;0.80;0.60;;;9.20;99.90;;;;;;5111887;28;20225;-85
2023/11/05 02:20:45;;;;;;;0.80;0.70;;;9.20;99.90;;;;;;5111835;28;20257;-85
2023/11/05 02:23:17;;;;;;;1.40;0.85;;;9.20;99.90;;;;;;5111215;28;20213;-85
2023/11/05 02:25:44;;;;;;;0.70;0.70;;;9.20;99.90;;;;;;5111459;28;20209;-84
2023/11/05 02:28:11;;;;;;;0.50;0.40;;;9.20;99.90;;;;;;5111460;28;20228;-85
2023/11/05 02:30:38;;;;;;;1.80;0.82;;;9.20;99.90;;;;;;5112142;28;20545;-84
2023/11/05 02:33:04;;;;;;;1.40;0.68;;;9.20;99.90;;;;;;5111042;28;20730;-84
2023/11/05 02:35:31;;;;;;;0.50;0.40;;;9.30;99.90;;;;;;5111025;28;20689;-84
2023/11/05 02:37:58;;;;;;;0.50;0.40;;;9.20;99.90;;;;;;5110813;28;20271;-84
2023/11/05 02:40:26;;;;;;;5.28;1.40;;;9.20;99.90;;;;;;5110766;28;20261;-84
2023/11/05 02:42:53;;;;;;;1.40;0.70;;;9.20;99.90;;;;;;5111206;28;20218;-85
2023/11/05 02:45:20;;;;;;;2.63;0.60;;;9.30;99.90;;;;;;5111449;28;20218;-85
2023/11/05 02:47:47;;;;;;;0.50;0.47;;;9.30;99.90;;;;;;5111197;28;20201;-84
2023/11/05 02:50:14;;;;;;;0.50;0.50;;;9.20;99.90;;;;;;5111185;28;20280;-85
2023/11/05 02:52:41;;;;;;;1.58;0.90;;;9.30;99.90;;;;;;5111295;28;20224;-84
2023/11/05 02:55:09;;;;;;;0.50;0.40;;;9.30;99.90;;;;;;5110232;28;20221;-83
2023/11/05 02:57:38;;;;;;;9.05;1.30;;;9.30;99.90;;;;;;5110837;28;20288;-84
2023/11/05 03:00:06;;;;;;;0.40;0.40;;;9.30;99.90;;;;;;5110719;28;20194;-85
2023/11/05 03:02:33;;;;;;;0.70;0.60;;;9.30;99.90;;;;;;5110199;28;20197;-85
2023/11/05 03:05:00;;;;;;;0.50;0.40;;;9.30;99.90;;;;;;5110811;28;20229;-85
2023/11/05 03:07:26;;;;;;;0.50;0.40;;;9.30;99.90;;;;;;5109506;28;20194;-84
2023/11/05 03:09:53;;;;;;;0.50;0.40;;;9.30;99.90;;;;;;5110312;28;20224;-84
2023/11/05 03:12:20;;;;;;;0.50;0.40;;;9.30;99.90;;;;;;5113376;28;20189;-82
2023/11/05 03:14:48;;;;;;;0.50;0.40;;;9.30;99.90;;;;;;5113553;28;20218;-84
2023/11/05 03:17:15;;;;;;;0.50;0.40;;;9.30;99.90;;;;;;5110474;28;20269;-84
2023/11/05 03:19:41;;;;;;;0.45;0.40;;;9.30;99.90;;;;;;5110835;28;20194;-85
2023/11/05 03:22:08;;;;;;;0.45;0.40;;;9.30;99.90;;;;;;5111287;28;20198;-84
2023/11/05 03:24:35;;;;;;;2.25;0.98;;;9.30;99.90;;;;;;5110126;28;20862;-84
2023/11/05 03:27:02;;;;;;;3.65;1.27;;;9.30;99.90;;;;;;5111057;28;20202;-84
2023/11/05 03:29:29;;;;;;;0.50;0.40;;;9.30;99.90;;;;;;5111047;28;20198;-84
2023/11/05 03:31:58;;;;;;;0.50;0.50;;;9.30;99.90;;;;;;5111340;28;20261;-84
2023/11/05 03:34:24;;;;;;;0.93;0.85;;;9.30;99.90;;;;;;5110870;28;20242;-84
2023/11/05 03:36:51;;;;;;;0.50;0.40;;;9.30;99.90;;;;;;5114642;28;20242;-83
2023/11/05 03:39:18;;;;;;;0.50;0.40;;;9.30;99.90;;;;;;5111848;28;20223;-83
2023/11/05 03:41:45;;;;;;;0.40;0.32;;;9.30;99.90;;;;;;5112423;28;20201;-84
2023/11/05 03:44:12;;;;;;;0.50;0.40;;;9.40;99.90;;;;;;5113510;28;20218;-83
2023/11/05 03:46:40;;;;;;;0.68;0.40;;;9.40;99.90;;;;;;5112299;28;20261;-84
2023/11/05 03:49:08;;;;;;;0.50;0.40;;;9.40;99.90;;;;;;5112364;28;20615;-84
2023/11/05 03:51:35;;;;;;;2.00;0.63;;;9.40;99.90;;;;;;5113649;28;20205;-84
2023/11/05 03:54:03;;;;;;;1.40;0.50;;;9.40;99.90;;;;;;5114905;28;20228;-84
2023/11/05 03:56:29;;;;;;;0.50;0.40;;;9.40;99.90;;;;;;5112460;28;20209;-84
2023/11/05 03:58:56;;;;;;;0.98;0.70;;;9.50;99.90;;;;;;5111589;28;20200;-84
2023/11/05 04:01:23;;;;;;;1.83;0.70;;;9.50;99.90;;;;;;5111473;28;20208;-84
2023/11/05 04:03:49;;;;;;;0.50;0.43;;;9.50;99.90;;;;;;5111695;28;20228;-84
2023/11/05 04:06:18;;;;;;;2.88;1.67;;;9.50;99.90;;;;;;5112619;28;20281;-83
2023/11/05 04:08:46;;;;;;;6.47;1.58;;;9.50;99.90;;;;;;5101896;28;20198;-85
2023/11/05 04:11:13;;;;;;;0.50;0.40;;;9.50;99.90;;;;;;5110001;28;20206;-84
2023/11/05 04:13:40;;;;;;;0.50;0.40;;;9.50;99.90;;;;;;5109839;28;20978;-85
2023/11/05 04:16:09;;;;;;;0.50;0.40;;;9.50;99.90;;;;;;5110724;28;20229;-84
2023/11/05 04:18:35;;;;;;;0.47;0.30;;;9.60;99.90;;;;;;5111070;28;20257;-83
2023/11/05 04:21:02;;;;;;;0.50;0.40;;;9.60;99.90;;;;;;5112085;28;20228;-83
2023/11/05 04:23:32;;;;;;;0.40;0.40;;;9.60;99.90;;;;;;5111585;28;20218;-84
2023/11/05 04:25:58;;;;;;;1.02;0.60;;;9.70;99.90;;;;;;5112902;28;20221;-84
2023/11/05 04:28:25;;;;;;;0.50;0.40;;;9.70;99.90;;;;;;5113708;28;20257;-84
2023/11/05 04:30:52;;;;;;;0.60;0.60;;;9.70;99.90;;;;;;5112598;28;20194;-84
2023/11/05 04:33:19;;;;;;;0.70;0.70;;;9.70;99.90;;;;;;5112385;28;20217;-83
2023/11/05 04:35:45;;;;;;;4.72;0.88;;;9.70;99.90;;;;;;5112719;28;20224;-84
2023/11/05 04:38:12;;;;;;;3.33;3.22;;;9.70;99.90;;;;;;5110868;28;20201;-84
2023/11/05 04:40:41;;;;;;;0.50;0.40;;;9.70;99.90;;;;;;5109976;28;20212;-83
2023/11/05 04:43:07;;;;;;;0.70;0.50;;;9.70;99.90;;;;;;5110169;28;20572;-84
2023/11/05 04:45:35;;;;;;;0.50;0.40;;;9.70;99.90;;;;;;5104611;28;20217;-83
2023/11/05 04:48:02;;;;;;;0.63;0.40;;;9.70;99.90;;;;;;5102217;28;20205;-85
2023/11/05 04:50:28;;;;;;;0.50;0.40;;;9.70;99.90;;;;;;5103738;28;20197;-83
2023/11/05 04:52:55;;;;;;;0.50;0.40;;;9.70;99.90;;;;;;5105902;28;20193;-84
2023/11/05 04:55:22;;;;;;;0.50;0.40;;;9.70;99.90;;;;;;5105114;28;20288;-82
2023/11/05 04:57:51;;;;;;;0.50;0.40;;;9.70;99.90;;;;;;5096683;28;20228;-83
2023/11/05 05:00:18;;;;;;;0.50;0.47;;;9.70;99.90;;;;;;5105748;28;20640;-83
2023/11/05 05:02:45;;;;;;;0.50;0.40;;;9.70;99.90;;;;;;5105714;28;20204;-84
2023/11/05 05:05:12;;;;;;;0.50;0.40;;;9.70;99.90;;;;;;5103987;28;20313;-83
2023/11/05 05:07:39;;;;;;;0.47;0.40;;;9.80;99.90;;;;;;5103937;28;20343;-84
2023/11/05 05:10:06;;;;;;;0.50;0.40;;;9.80;99.90;;;;;;5103067;28;20266;-84
2023/11/05 05:12:34;;;;;;;0.50;0.40;;;9.80;99.90;;;;;;5102274;28;20198;-82
2023/11/05 05:15:05;;;;;;;0.45;0.40;;;9.80;99.90;;;;;;5102243;28;20214;-83
2023/11/05 05:17:32;;;;;;;1.73;1.25;;;9.80;99.90;;;;;;5100898;28;20239;-83
2023/11/05 05:19:58;;;;;;;1.17;0.52;;;9.80;99.90;;;;;;5102640;28;20194;-83
2023/11/05 05:22:25;;;;;;;0.50;0.38;;;9.80;99.90;;;;;;5100065;28;20225;-83
2023/11/05 05:24:52;;;;;;;0.50;0.40;;;9.80;99.90;;;;;;5100391;28;20241;-82
2023/11/05 05:27:19;;;;;;;0.45;0.43;;;9.80;99.90;;;;;;5100393;28;20193;-83
2023/11/05 05:29:46;;;;;;;0.50;0.35;;;9.80;99.90;;;;;;5100503;28;20198;-83
2023/11/05 05:32:14;;;;;;;0.50;0.40;;;9.80;99.90;;;;;;5100397;28;20200;-84
2023/11/05 05:34:41;;;;;;;0.50;0.40;;;9.80;99.90;;;;;;5100725;28;20700;-83
2023/11/05 05:37:08;;;;;;;0.50;0.40;;;9.80;99.90;;;;;;5101939;28;20202;-83
2023/11/05 05:39:35;;;;;;;0.50;0.40;;;9.80;99.90;;;;;;5100377;28;20205;-84
2023/11/05 05:42:03;;;;;;;0.40;0.30;;;9.80;99.90;;;;;;5101039;28;20198;-84
2023/11/05 05:44:30;;;;;;;0.50;0.40;;;9.80;99.90;;;;;;5102974;28;20231;-81
2023/11/05 05:46:57;;;;;;;0.50;0.40;;;9.80;99.90;;;;;;5100672;28;20194;-84
2023/11/05 05:49:25;;;;;;;0.50;0.40;;;9.80;99.90;;;;;;5097588;28;20197;-83
2023/11/05 05:51:52;;;;;;;0.50;0.40;;;9.80;99.90;;;;;;5097632;28;20193;-83
2023/11/05 05:54:19;;;;;;;0.50;0.40;;;9.80;99.90;;;;;;5097413;28;20224;-85
2023/11/05 05:56:46;;;;;;;0.50;0.40;;;9.80;99.90;;;;;;5094413;28;20197;-84
2023/11/05 05:59:12;;;;;;;0.50;0.40;;;9.80;99.90;;;;;;5095551;28;20197;-83
2023/11/05 06:01:39;;;;;;;0.50;0.40;;;9.90;99.90;;;;;;5094699;28;20794;-85
2023/11/05 06:04:07;;;;;;;0.50;0.40;;;9.80;99.90;;;;;;5094803;28;20221;-84
2023/11/05 06:06:36;;;;;;;0.50;0.40;;;9.80;99.90;;;;;;5094723;28;20197;-83
2023/11/05 06:09:06;;;;;;;0.50;0.40;;;9.90;99.90;;;;;;5096963;28;20299;-85
2023/11/05 06:11:32;;;;;;;0.50;0.40;;;9.90;99.90;;;;;;5094883;28;20592;-85
2023/11/05 06:13:59;;;;;;;0.40;0.40;;;9.90;99.90;;;;;;5094728;28;20217;-85
2023/11/05 06:16:26;;;;;;;0.50;0.40;;;9.90;99.90;;;;;;5095213;28;20193;-85
2023/11/05 06:18:53;;;;;;;0.50;0.40;;;9.80;99.90;;;;;;5097491;28;20194;-85
2023/11/05 06:21:19;;;;;;;0.50;0.40;;;9.80;99.90;;;;;;5097779;28;20269;-85
2023/11/05 06:23:48;;;;;;;0.57;0.57;;;9.80;99.90;;;;;;5095479;28;20194;-87
2023/11/05 06:26:15;;;;;;;0.50;0.43;;;9.70;99.90;;;;;;5095805;28;20193;-86
2023/11/05 06:28:42;;;;;;;0.50;0.40;;;9.70;99.90;;;;;;5095940;28;20247;-86
2023/11/05 06:31:08;;;;;;;0.50;0.40;;;9.70;99.90;;;;;;5095732;28;20213;-88
2023/11/05 06:33:35;;;;;;;0.50;0.40;;;9.70;99.90;;;;;;5095740;28;20208;-87
2023/11/05 06:36:03;;;;;;;0.50;0.38;;;9.70;99.90;;;;;;5095750;28;20200;-86
2023/11/05 06:38:30;;;;;;;0.50;0.40;;;9.70;99.90;;;;;;5095365;28;20665;-86
2023/11/05 06:40:58;;;;;;;0.50;0.40;;;9.70;99.90;;;;;;5094461;28;20560;-86
2023/11/05 06:43:25;;;;;;;0.50;0.40;;;9.80;99.90;;;;;;5093817;28;20201;-88
2023/11/05 06:45:52;;;;;;;0.50;0.40;;;9.80;99.90;;;;;;5094250;28;20218;-86
2023/11/05 06:48:19;;;;;;;0.50;0.40;;;9.80;99.90;;;;;;5095725;28;20209;-87
2023/11/05 06:50:47;;;;;;;0.50;0.40;;;9.80;99.90;;;;;;5097890;28;20197;-87
2023/11/05 06:53:13;;;;;;;0.50;0.40;;;9.80;99.90;;;;;;5098362;28;20233;-86
2023/11/05 06:55:40;;;;;;;0.50;0.50;;;9.90;99.90;;;;;;5100545;28;20221;-87
2023/11/05 06:58:09;;;;;;;0.50;0.40;;;9.90;99.90;;;;;;5099029;28;20202;-86
2023/11/05 07:00:35;;;;;;;0.50;0.40;;;9.90;99.90;;;;;;5101196;28;20447;-85
2023/11/05 07:03:02;;;;;;;0.50;0.40;;;9.80;99.90;;;;;;5101571;28;20202;-88
2023/11/05 07:05:29;;;;;;;0.40;0.40;;;9.90;99.90;;;;;;5100762;28;20228;-86
2023/11/05 07:07:56;;;;;;;0.50;0.40;;;9.80;99.90;;;;;;5101932;28;20204;-87
2023/11/05 07:10:22;;;;;;;0.50;0.40;;;9.80;99.90;;;;;;5105457;28;20202;-88
2023/11/05 07:12:49;;;;;;;0.50;0.40;;;9.90;99.90;;;;;;5104466;28;20436;-88
2023/11/05 07:15:18;;;;;;;0.50;0.40;;;9.90;99.90;;;;;;5104726;28;20216;-86
2023/11/05 07:17:46;;;;;;;0.50;0.40;;;9.90;99.90;;;;;;5103000;28;20208;-87
2023/11/05 07:20:13;;;;;;;0.50;0.50;;;9.90;99.90;;;;;;5102811;28;20194;-85
2023/11/05 07:22:40;;;;;;;0.50;0.40;;;9.90;99.90;;;;;;5101121;28;20255;-86
2023/11/05 07:25:08;;;;;;;0.40;0.40;;;9.90;99.90;;;;;;5099223;28;20485;-86
2023/11/05 07:27:35;;;;;;;0.50;0.40;;;9.90;99.90;;;;;;5102006;28;20713;-84
2023/11/05 07:30:03;;;;;;;0.50;0.40;;;9.90;99.90;;;;;;5092436;28;20231;-87
2023/11/05 07:32:31;;;;;;;0.50;0.40;;;10.00;99.90;;;;;;5101143;28;20198;-87
2023/11/05 07:34:58;;;;;;;0.50;0.40;;;10.00;99.90;;;;;;5103080;28;20459;-87
2023/11/05 07:37:27;;;;;;;0.47;0.38;;;10.00;99.90;;;;;;5098445;28;20212;-86
2023/11/05 07:39:54;;;;;;;0.50;0.40;;;10.00;99.90;;;;;;5099516;28;20695;-87
2023/11/05 07:42:21;;;;;;;0.43;0.35;;;10.10;99.90;;;;;;5099819;28;20819;-84
2023/11/05 07:44:48;;;;;;;0.50;0.40;;;10.00;99.90;;;;;;5100454;28;20218;-86
2023/11/05 07:47:15;;;;;;;0.50;0.30;;;10.00;99.90;;;;;;5102397;28;20200;-87
2023/11/05 07:49:43;;;;;;;0.50;0.33;;;10.00;99.90;;;;;;5100296;28;20197;-86
2023/11/05 07:52:10;;;;;;;0.50;0.40;;;10.00;99.90;;;;;;5098041;28;20435;-86
2023/11/05 07:54:36;;;;;;;0.50;0.40;;;10.00;99.90;;;;;;5097603;28;20220;-85
2023/11/05 07:57:03;;;;;;;0.50;0.40;;;10.10;99.90;;;;;;5096704;28;20219;-87
2023/11/05 07:59:30;;;;;;;0.50;0.38;;;10.10;99.90;;;;;;5097834;28;20198;-86
2023/11/05 08:01:57;;;;;;;0.50;0.40;;;10.20;99.90;;;;;;5096338;28;20198;-87
2023/11/05 08:04:24;;;;;;;0.50;0.40;;;10.20;99.90;;;;;;5096320;28;20293;-86
2023/11/05 08:06:54;;;;;;;0.50;0.40;;;10.20;99.90;;;;;;5095597;28;20710;-84
2023/11/05 08:09:21;;;;;;;0.50;0.40;;;10.20;99.90;;;;;;5096840;28;20683;-88
2023/11/05 08:11:53;;;;;;;0.50;0.30;;;10.20;99.90;;;;;;5097768;28;20216;-87
2023/11/05 08:14:19;;;;;;;0.50;0.45;;;10.20;99.90;;;;;;5095458;28;20214;-86
2023/11/05 08:16:46;;;;;;;0.50;0.40;;;10.20;99.90;;;;;;5095997;28;20197;-86
2023/11/05 08:19:13;;;;;;;0.50;0.40;;;10.20;99.90;;;;;;5095642;28;20451;-86
2023/11/05 08:21:40;;;;;;;0.50;0.40;;;10.20;99.90;;;;;;5095372;28;20465;-87
2023/11/05 08:24:08;;;;;;;0.50;0.40;;;10.30;99.90;;;;;;5087134;28;20568;-86
2023/11/05 08:26:35;;;;;;;0.50;0.40;;;10.40;99.90;;;;;;5095495;28;20197;-84
2023/11/05 08:29:03;;;;;;;0.50;0.35;;;10.40;99.90;;;;;;5096465;28;20198;-86
2023/11/05 08:31:30;;;;;;;0.60;0.47;;;10.40;99.90;;;;;;5096415;28;20194;-86
2023/11/05 08:33:57;;;;;;;0.50;0.40;;;10.40;99.90;;;;;;5095989;28;20218;-87
2023/11/05 08:36:23;;;;;;;0.50;0.40;;;10.40;99.90;;;;;;5096012;28;20208;-86
2023/11/05 08:38:52;;;;;;;0.50;0.40;;;10.40;99.90;;;;;;5095972;28;20285;-86
2023/11/05 08:41:21;;;;;;;0.50;0.40;;;10.50;99.90;;;;;;5095666;28;20672;-86
2023/11/05 08:43:49;;;;;;;0.50;0.40;;;10.50;99.90;;;;;;5096103;28;20448;-86
2023/11/05 08:46:16;;;;;;;0.50;0.50;;;10.50;99.90;;;;;;5097002;28;20210;-85
2023/11/05 08:48:43;;;;;;;0.50;0.50;;;10.50;99.90;;;;;;5097002;28;20189;-86
2023/11/05 08:51:10;;;;;;;0.40;0.40;;;10.60;99.90;;;;;;5095744;28;20436;-86
2023/11/05 08:53:37;;;;;;;0.50;0.40;;;10.60;99.90;;;;;;5097329;28;20198;-88
2023/11/05 08:56:04;;;;;;;0.70;0.40;;;10.60;99.90;;;;;;5096926;28;20190;-83
2023/11/05 08:58:32;;;;;;;0.50;0.40;;;10.60;99.90;;;;;;5094394;28;20435;-86
2023/11/05 09:00:59;;;;;;;0.50;0.40;;;10.70;99.90;;;;;;5094089;28;20211;-85
2023/11/05 09:03:26;;;;;;;0.50;0.40;;;10.80;99.90;;;;;;5094208;28;20290;-86
2023/11/05 09:05:54;;;;;;;0.50;0.30;;;10.90;99.90;;;;;;5094071;28;20756;-86
2023/11/05 09:08:21;;;;;;;0.50;0.40;;;10.90;99.90;;;;;;5094090;28;20476;-86
2023/11/05 09:10:48;;;;;;;0.50;0.50;;;11.00;99.90;;;;;;5094073;28;20196;-84
2023/11/05 09:13:15;;;;;;;0.50;0.40;;;11.00;99.90;;;;;;5094392;28;20447;-86
2023/11/05 09:15:43;;;;;;;2.77;2.57;;;11.10;99.90;;;;;;5094859;28;20464;-86
2023/11/05 09:18:11;;;;;;;0.50;0.40;;;11.00;99.90;;;;;;5094643;28;20539;-86
2023/11/05 09:20:39;;;;;;;0.50;0.40;;;11.00;99.90;;;;;;5094955;28;20444;-85
2023/11/05 09:23:05;;;;;;;0.50;0.40;;;11.00;99.90;;;;;;5093606;28;20446;-85
2023/11/05 09:25:32;;;;;;;0.50;0.40;;;10.90;99.90;;;;;;5094572;28;20475;-83
2023/11/05 09:27:59;;;;;;;0.50;0.40;;;10.80;99.90;;;;;;5093826;28;20198;-85
2023/11/05 09:30:26;;;;;;;0.70;0.50;;;10.70;99.90;;;;;;5093847;28;20440;-85
2023/11/05 09:32:54;;;;;;;0.50;0.50;;;10.70;99.90;;;;;;5093806;28;20201;-85
2023/11/05 09:35:21;;;;;;;1.67;0.50;;;10.60;99.90;;;;;;5094081;28;20293;-85
2023/11/05 09:37:48;;;;;;;0.60;0.50;;;10.60;99.90;;;;;;5094396;28;20190;-85
2023/11/05 09:40:16;;;;;;;0.55;0.45;;;10.60;99.90;;;;;;5104844;28;20186;-85
2023/11/05 09:42:46;;;;;;;0.50;0.40;;;10.60;99.90;;;;;;5096230;28;20197;-84
2023/11/05 09:45:14;;;;;;;1.10;0.70;;;10.60;99.90;;;;;;5102155;28;20243;-87
2023/11/05 09:47:42;;;;;;;0.50;0.40;;;10.70;99.90;;;;;;5100444;28;20450;-87
2023/11/05 09:50:12;;;;;;;0.60;0.60;;;10.80;99.90;;;;;;5099074;28;20197;-87
2023/11/05 09:52:41;;;;;;;0.50;0.50;;;11.00;99.90;;;;;;5096782;28;20277;-85
2023/11/05 09:55:09;;;;;;;0.70;0.50;;;11.10;99.90;;;;;;5097195;28;20228;-86
2023/11/05 09:57:36;;;;;;;0.50;0.40;;;11.20;99.90;;;;;;5097567;28;20439;-84
2023/11/05 10:00:04;;;;;;;0.50;0.40;;;11.20;99.90;;;;;;5097240;28;20212;-85
2023/11/05 10:02:56;;;;;;;0.50;0.40;;;11.20;99.90;;;;;;5098135;28;20438;-86
2023/11/05 10:05:26;;;;;;;0.50;0.40;;;11.20;99.90;;;;;;5096635;28;20471;-85
2023/11/05 10:07:53;;;;;;;0.50;0.40;;;11.20;99.90;;;;;;5096167;28;20436;-85
2023/11/05 10:10:20;;;;;;;0.50;0.40;;;11.20;99.90;;;;;;5096835;28;20440;-87
2023/11/05 10:12:47;;;;;;;0.50;0.40;;;11.10;99.90;;;;;;5097426;28;20239;-85
2023/11/05 10:15:14;;;;;;;0.57;0.57;;;11.10;99.90;;;;;;5098384;28;20205;-86
2023/11/05 10:17:41;;;;;;;0.50;0.40;;;11.10;99.90;;;;;;5097133;28;20189;-86
2023/11/05 10:20:10;;;;;;;0.50;0.40;;;11.00;99.90;;;;;;5097886;28;20194;-86
2023/11/05 10:22:43;;;;;;;3.33;3.03;;;11.00;99.90;;;;;;5097946;28;20247;-86
2023/11/05 10:25:25;;;;;;;0.50;0.40;;;11.00;99.90;;;;;;5099958;28;20236;-87
2023/11/05 10:27:53;;;;;;;1.48;1.13;;;10.90;99.90;;;;;;5100297;28;20500;-85
2023/11/05 10:30:20;;;;;;;0.50;0.40;;;10.90;99.90;;;;;;5091327;28;20205;-87
2023/11/05 10:32:49;;;;;;;0.50;0.40;;;10.80;99.90;;;;;;5096823;28;20526;-87
2023/11/05 10:35:18;;;;;;;0.70;0.60;;;10.80;99.90;;;;;;5100296;28;20623;-87
2023/11/05 10:37:47;;;;;;;0.50;0.40;;;10.70;99.90;;;;;;5099398;28;20457;-87
2023/11/05 10:40:14;;;;;;;0.50;0.40;;;10.70;99.90;;;;;;5098549;28;20556;-86
2023/11/05 10:42:42;;;;;;;0.50;0.50;;;10.80;99.90;;;;;;5098890;28;20190;-85
2023/11/05 10:45:11;;;;;;;0.70;0.70;;;10.80;99.90;;;;;;5098309;28;20580;-86
2023/11/05 10:47:38;;;;;;;1.23;1.23;;;10.80;99.90;;;;;;5098477;28;20436;-84
2023/11/05 10:50:08;;;;;;;0.50;0.50;;;10.80;99.90;;;;;;5100902;28;20728;-85
2023/11/05 10:52:38;;;;;;;0.50;0.50;;;10.80;99.90;;;;;;5098515;28;20254;-85
2023/11/05 10:55:08;;;;;;;0.60;0.40;;;10.80;99.90;;;;;;5098002;28;20241;-86
2023/11/05 10:57:42;;;;;;;0.80;0.60;;;10.80;99.90;;;;;;5099018;28;20185;-85
2023/11/05 11:00:45;;;;;;;0.90;0.70;;;10.80;99.90;;;;;;5098843;28;20198;-86
2023/11/05 11:03:14;;;;;;;0.50;0.40;;;10.80;99.90;;;;;;5097989;28;20242;-84
2023/11/05 11:05:56;;;;;;;0.60;0.60;;;10.80;99.90;;;;;;5098716;28;20214;-86
2023/11/05 11:08:25;;;;;;;4.87;0.80;;;10.80;99.90;;;;;;5098600;28;20434;-86
2023/11/05 11:11:07;;;;;;;0.50;0.40;;;10.80;99.90;;;;;;5100165;28;20432;-85
2023/11/05 11:13:36;;;;;;;2.73;1.30;;;10.90;99.90;;;;;;5097030;28;20919;-85
2023/11/05 11:16:05;;;;;;;1.10;1.00;;;10.90;99.90;;;;;;5097680;28;20466;-86
2023/11/05 11:18:33;;;;;;;1.98;0.73;;;10.90;99.90;;;;;;5098359;28;20240;-85
2023/11/05 11:21:03;;;;;;;1.60;0.60;;;10.90;99.90;;;;;;5097845;28;20280;-87
2023/11/05 11:23:30;;;;;;;0.70;0.70;;;11.00;99.90;;;;;;5097451;28;20443;-85
2023/11/05 11:26:04;;;;;;;4.67;1.53;;;11.10;99.90;;;;;;5098264;28;20531;-85
2023/11/05 11:28:32;;;;;;;1.43;0.80;;;11.10;99.90;;;;;;5091142;28;20525;-85
2023/11/05 11:31:00;;;;;;;0.80;0.70;;;11.10;99.90;;;;;;5098332;28;20518;-85
2023/11/05 11:33:29;;;;;;;0.60;0.60;;;11.00;99.90;;;;;;5090575;28;20503;-84
2023/11/05 11:35:57;;;;;;;1.35;0.50;;;10.90;99.90;;;;;;5098297;28;20200;-85
2023/11/05 11:38:23;;;;;;;0.60;0.60;;;10.90;99.90;;;;;;5098247;28;20190;-86
2023/11/05 11:40:54;;;;;;;0.90;0.90;;;10.90;99.90;;;;;;5100784;28;20186;-89
2023/11/05 11:43:23;;;;;;;0.50;0.40;;;10.80;99.90;;;;;;5100971;28;20447;-86
2023/11/05 11:45:50;;;;;;;0.50;0.45;;;10.80;99.90;;;;;;5099531;28;21067;-86
2023/11/05 11:48:16;;;;;;;0.50;0.40;;;10.80;99.90;;;;;;5100330;28;20198;-87
2023/11/05 11:50:53;;;;;;;1.57;1.47;;;10.80;99.90;;;;;;5100487;28;20211;-86
2023/11/05 11:53:27;;;;;;;1.17;1.17;;;10.80;99.90;;;;;;5098569;28;20458;-86
2023/11/05 11:55:54;;;;;;;0.70;0.70;;;10.80;99.90;;;;;;5100468;28;20463;-87
2023/11/05 11:58:24;;;;;;;3.17;0.80;;;10.80;99.90;;;;;;5103907;28;20436;-87
2023/11/05 12:00:51;;;;;;;0.60;0.50;;;10.70;99.90;;;;;;5103928;28;20440;-87
2023/11/05 12:03:18;;;;;;;0.70;0.70;;;10.60;99.90;;;;;;5104250;28;20534;-88
2023/11/05 12:05:45;;;;;;;1.08;0.98;;;10.60;99.90;;;;;;5102787;28;20509;-86
2023/11/05 12:08:13;;;;;;;0.60;0.40;;;10.50;99.90;;;;;;5103756;28;20204;-87
2023/11/05 12:10:42;;;;;;;5.47;0.60;;;10.50;99.90;;;;;;5104340;28;20306;-86
2023/11/05 12:13:10;;;;;;;1.02;1.02;;;10.40;99.90;;;;;;5106064;28;20194;-86
2023/11/05 12:15:39;;;;;;;0.50;0.43;;;10.40;99.90;;;;;;5102780;28;20210;-87
2023/11/05 12:18:06;;;;;;;0.88;0.88;;;10.40;99.90;;;;;;5102202;28;20231;-88
2023/11/05 12:20:34;;;;;;;0.45;0.40;;;10.40;99.90;;;;;;5101511;28;20679;-87
2023/11/05 12:23:01;;;;;;;0.50;0.40;;;10.30;99.90;;;;;;5100893;28;20285;-86
2023/11/05 12:25:28;;;;;;;0.50;0.50;;;10.20;99.90;;;;;;5098333;28;20210;-86
2023/11/05 12:27:56;;;;;;;0.50;0.40;;;10.20;99.90;;;;;;5098488;28;20259;-86
2023/11/05 12:30:24;;;;;;;0.40;0.40;;;10.20;99.90;;;;;;5097707;28;20194;-86
2023/11/05 12:32:52;;;;;;;0.50;0.50;;;10.20;99.90;;;;;;5098088;28;20198;-88
2023/11/05 12:35:19;;;;;;;0.50;0.40;;;10.30;99.90;;;;;;5100361;28;20218;-88
2023/11/05 12:37:46;;;;;;;1.65;1.27;;;10.20;99.90;;;;;;5099429;28;20200;-86
2023/11/05 12:40:14;;;;;;;0.50;0.40;;;10.30;99.90;;;;;;5100369;28;20198;-86
2023/11/05 12:42:41;;;;;;;2.15;0.55;;;10.40;99.90;;;;;;5100548;28;20834;-85
2023/11/05 12:45:09;;;;;;;30.50;1.90;;;10.50;99.90;;;;;;5099409;28;20218;-86
2023/11/05 12:47:36;;;;;;;4.80;3.20;;;10.50;99.90;;;;;;5099994;28;20541;-86
2023/11/05 12:50:05;;;;;;;0.68;0.60;;;10.50;99.90;;;;;;5098434;28;20451;-86
2023/11/05 12:52:32;;;;;;;1.80;1.25;;;10.60;99.90;;;;;;5091697;28;20187;-87
2023/11/05 12:54:59;;;;;;;0.50;0.50;;;10.60;99.90;;;;;;5098247;28;20722;-87